createdAt,value
2017-07-18T00:01:53.770Z,77.35
2017-07-18T00:04:22.195Z,77.11
2017-07-18T00:06:50.640Z,77.45
2017-07-18T00:09:20.468Z,76.86
2017-07-18T00:11:48.554Z,77.95
2017-07-18T00:14:17.185Z,78.45
2017-07-18T00:16:45.281Z,79.62
2017-07-18T00:19:14.066Z,80.03
2017-07-18T00:21:42.456Z,79.45
2017-07-18T00:24:10.631Z,78.74
2017-07-18T00:26:38.817Z,78.60
2017-07-18T00:29:07.423Z,78.57
2017-07-18T00:31:35.615Z,79.12
2017-07-18T00:34:04.319Z,79.62
2017-07-18T00:36:32.732Z,79.16
2017-07-18T00:39:01.449Z,79.45
2017-07-18T00:41:29.513Z,79.48
2017-07-18T00:43:57.983Z,77.19
2017-07-18T00:46:26.723Z,76.61
2017-07-18T00:48:54.813Z,76.91
2017-07-18T00:51:23.535Z,77.18
2017-07-18T00:53:51.747Z,76.99
2017-07-18T00:56:22.995Z,77.41
2017-07-18T00:58:51.516Z,77.21
2017-07-18T01:01:21.790Z,77.70
2017-07-18T01:03:50.294Z,77.49
2017-07-18T01:06:21.137Z,77.29
2017-07-18T01:08:49.652Z,74.21
2017-07-18T01:11:18.745Z,76.36
2017-07-18T01:13:47.511Z,74.46
2017-07-18T01:16:15.736Z,71.93
2017-07-18T01:18:43.944Z,72.69
2017-07-18T01:21:13.487Z,74.03
2017-07-18T01:23:41.523Z,75.34
2017-07-18T01:26:09.733Z,76.16
2017-07-18T01:28:38.492Z,75.82
2017-07-18T01:31:06.574Z,75.37
2017-07-18T01:33:34.831Z,76.44
2017-07-18T01:36:03.312Z,77.89
2017-07-18T01:38:31.679Z,76.43
2017-07-18T01:41:00.351Z,75.94
2017-07-18T01:43:28.759Z,75.39
2017-07-18T01:45:57.249Z,75.91
2017-07-18T01:48:26.025Z,75.53
2017-07-18T01:50:54.215Z,75.92
2017-07-18T01:53:22.992Z,76.92
2017-07-18T01:55:51.666Z,76.74
2017-07-18T01:58:21.572Z,76.77
2017-07-18T02:00:49.663Z,75.93
2017-07-18T02:03:20.488Z,76.36
2017-07-18T02:05:48.971Z,74.33
2017-07-18T02:08:17.305Z,74.39
2017-07-18T02:10:46.754Z,74.67
2017-07-18T02:13:14.875Z,75.33
2017-07-18T02:18:10.661Z,74.62
2017-07-18T02:20:39.675Z,74.50
2017-07-18T02:23:07.846Z,75.11
2017-07-18T02:25:36.336Z,74.41
2017-07-18T02:28:05.227Z,74.32
2017-07-18T02:30:33.792Z,73.68
2017-07-18T02:33:02.347Z,73.40
2017-07-18T02:35:31.401Z,74.58
2017-07-18T02:37:59.638Z,73.60
2017-07-18T02:40:28.124Z,74.84
2017-07-18T02:42:56.848Z,74.03
2017-07-18T02:45:25.379Z,74.33
2017-07-18T02:47:53.519Z,74.85
2017-07-18T02:50:23.488Z,75.40
2017-07-18T02:52:51.616Z,75.95
2017-07-18T02:55:22.783Z,75.26
2017-07-18T02:57:51.207Z,75.23
2017-07-18T03:00:19.364Z,76.22
2017-07-18T03:02:48.432Z,75.76
2017-07-18T03:05:16.935Z,75.63
2017-07-18T03:07:45.111Z,76.60
2017-07-18T03:10:13.176Z,76.62
2017-07-18T03:12:41.957Z,76.07
2017-07-18T03:15:10.716Z,76.37
2017-07-18T03:17:39.399Z,76.36
2017-07-18T03:20:07.753Z,76.75
2017-07-18T03:22:36.290Z,75.71
2017-07-18T03:25:04.521Z,76.64
2017-07-18T03:27:33.263Z,76.70
2017-07-18T03:30:01.409Z,76.82
2017-07-18T03:32:29.628Z,76.46
2017-07-18T03:34:58.237Z,77.08
2017-07-18T03:37:26.523Z,77.39
2017-07-18T03:39:55.083Z,76.80
2017-07-18T03:42:23.813Z,77.02
2017-07-18T03:44:52.018Z,77.11
2017-07-18T03:47:22.776Z,77.03
2017-07-18T03:49:51.275Z,77.45
2017-07-18T03:52:21.444Z,77.11
2017-07-18T03:54:49.509Z,77.53
2017-07-18T03:57:19.515Z,78.20
2017-07-18T03:59:48.103Z,77.53
2017-07-18T04:02:16.265Z,77.60
2017-07-18T04:04:44.625Z,77.58
2017-07-18T04:07:13.068Z,77.19
2017-07-18T04:09:41.429Z,76.22
2017-07-18T04:12:10.212Z,74.85
2017-07-18T04:14:38.689Z,74.86
2017-07-18T04:17:06.874Z,74.43
2017-07-18T04:19:35.118Z,74.85
2017-07-18T04:22:03.765Z,74.76
2017-07-18T04:24:32.172Z,74.90
2017-07-18T04:27:00.579Z,75.23
2017-07-18T04:29:29.635Z,75.86
2017-07-18T04:31:57.764Z,75.39
2017-07-18T04:34:26.219Z,75.20
2017-07-18T04:36:54.924Z,74.85
2017-07-18T04:39:23.907Z,74.71
2017-07-18T04:41:52.059Z,74.42
2017-07-18T04:44:22.656Z,74.27
2017-07-18T04:46:51.228Z,74.16
2017-07-18T04:49:23.847Z,74.80
2017-07-18T04:51:51.955Z,74.18
2017-07-18T04:54:23.165Z,74.03
2017-07-18T04:56:51.558Z,74.65
2017-07-18T04:59:22.191Z,73.76
2017-07-18T05:01:50.719Z,73.63
2017-07-18T05:04:21.116Z,73.11
2017-07-18T05:06:49.483Z,73.44
2017-07-18T05:09:19.418Z,73.22
2017-07-18T05:11:47.946Z,72.94
2017-07-18T05:14:16.162Z,72.25
2017-07-18T05:16:44.919Z,73.17
2017-07-18T05:19:13.107Z,73.29
2017-07-18T05:21:41.251Z,72.53
2017-07-18T05:24:09.951Z,73.25
2017-07-18T05:26:38.786Z,71.90
2017-07-18T05:29:07.024Z,71.76
2017-07-18T05:31:35.409Z,72.09
2017-07-18T05:34:03.917Z,71.05
2017-07-18T05:36:32.407Z,71.33
2017-07-18T05:39:00.906Z,71.28
2017-07-18T05:41:29.487Z,69.90
2017-07-18T05:43:58.100Z,70.98
2017-07-18T05:46:26.464Z,70.63
2017-07-18T05:48:55.031Z,70.39
2017-07-18T05:51:23.475Z,70.36
2017-07-18T05:53:52.436Z,69.17
2017-07-18T05:56:20.717Z,69.25
2017-07-18T05:58:49.293Z,68.64
2017-07-18T06:01:17.647Z,68.25
2017-07-18T06:03:45.975Z,68.58
2017-07-18T06:06:14.064Z,68.29
2017-07-18T06:08:42.408Z,66.45
2017-07-18T06:11:11.024Z,68.45
2017-07-18T06:13:39.099Z,68.60
2017-07-18T06:16:07.461Z,68.01
2017-07-18T06:18:35.535Z,66.37
2017-07-18T06:21:08.087Z,66.82
2017-07-18T06:23:36.575Z,66.96
2017-07-18T06:26:04.623Z,66.86
2017-07-18T06:28:32.951Z,67.50
2017-07-18T06:31:01.490Z,67.22
2017-07-18T06:33:29.980Z,67.71
2017-07-18T06:35:58.119Z,66.83
2017-07-18T06:38:26.596Z,65.86
2017-07-18T06:40:54.700Z,64.91
2017-07-18T06:43:23.071Z,65.39
2017-07-18T06:45:51.437Z,66.01
2017-07-18T06:48:19.580Z,65.05
2017-07-18T06:50:47.664Z,63.85
2017-07-18T06:53:16.058Z,64.17
2017-07-18T06:55:44.200Z,62.82
2017-07-18T06:58:12.251Z,62.07
2017-07-18T07:00:40.660Z,60.72
2017-07-18T07:03:08.749Z,63.80
2017-07-18T07:05:36.828Z,62.28
2017-07-18T07:08:05.429Z,60.14
2017-07-18T07:10:33.748Z,61.17
2017-07-18T07:13:01.949Z,60.98
2017-07-18T07:15:30.408Z,61.50
2017-07-18T07:17:58.555Z,60.98
2017-07-18T07:20:26.933Z,62.42
2017-07-18T07:22:55.715Z,62.94
2017-07-18T07:25:23.875Z,61.99
2017-07-18T07:27:52.047Z,60.77
2017-07-18T07:30:20.587Z,61.16
2017-07-18T07:32:48.720Z,60.84
2017-07-18T07:35:16.889Z,60.93
2017-07-18T07:37:45.386Z,60.52
2017-07-18T07:40:13.456Z,60.82
2017-07-18T07:42:41.696Z,62.77
2017-07-18T07:45:10.047Z,61.40
2017-07-18T07:47:38.117Z,60.41
2017-07-18T07:50:06.577Z,58.92
2017-07-18T07:52:35.359Z,59.58
2017-07-18T07:55:03.997Z,59.62
2017-07-18T07:57:32.504Z,59.12
2017-07-18T08:00:00.852Z,58.03
2017-07-18T08:02:29.756Z,55.01
2017-07-18T08:04:57.835Z,54.14
2017-07-18T08:07:26.521Z,53.43
2017-07-18T08:09:54.583Z,53.48
2017-07-18T08:12:22.644Z,52.89
2017-07-18T08:14:51.969Z,53.74
2017-07-18T08:17:20.194Z,53.21
2017-07-18T08:19:48.284Z,51.90
2017-07-18T08:22:16.647Z,51.53
2017-07-18T08:24:45.148Z,52.03
2017-07-18T08:27:13.299Z,52.24
2017-07-18T08:29:41.747Z,52.81
2017-07-18T08:32:09.972Z,52.31
2017-07-18T08:34:38.059Z,52.38
2017-07-18T08:37:06.466Z,52.61
2017-07-18T08:39:34.610Z,52.75
2017-07-18T08:42:02.703Z,54.06
2017-07-18T08:44:31.050Z,53.91
2017-07-18T08:46:59.130Z,54.13
2017-07-18T08:49:27.269Z,54.26
2017-07-18T08:51:55.661Z,53.12
2017-07-18T08:54:23.756Z,54.13
2017-07-18T08:56:51.871Z,54.17
2017-07-18T08:59:20.251Z,53.95
2017-07-18T09:01:48.360Z,55.19
2017-07-18T09:04:16.490Z,55.49
2017-07-18T09:06:44.849Z,52.95
2017-07-18T09:09:12.961Z,52.08
2017-07-18T09:11:41.023Z,52.56
2017-07-18T09:14:09.794Z,54.53
2017-07-18T09:16:37.846Z,54.13
2017-07-18T09:19:05.903Z,55.68
2017-07-18T09:21:34.240Z,52.55
2017-07-18T09:24:02.319Z,50.79
2017-07-18T09:26:30.383Z,51.59
2017-07-18T09:28:59.039Z,51.34
2017-07-18T09:31:27.746Z,50.22
2017-07-18T09:33:56.267Z,49.21
2017-07-18T09:36:24.635Z,50.93
2017-07-18T09:38:52.744Z,46.75
2017-07-18T09:41:20.803Z,47.47
2017-07-18T09:43:49.150Z,46.39
2017-07-18T09:46:17.231Z,46.83
2017-07-18T09:48:45.319Z,47.73
2017-07-18T09:51:13.663Z,47.03
2017-07-18T09:53:41.775Z,48.18
2017-07-18T09:56:09.872Z,49.68
2017-07-18T09:58:38.235Z,49.54
2017-07-18T10:01:06.339Z,48.81
2017-07-18T10:03:34.457Z,48.17
2017-07-18T10:06:02.833Z,46.61
2017-07-18T10:08:30.930Z,46.42
2017-07-18T10:10:59.039Z,46.98
2017-07-18T10:13:27.403Z,48.77
2017-07-18T10:15:55.486Z,44.52
2017-07-18T10:18:23.586Z,46.48
2017-07-18T10:20:51.923Z,49.05
2017-07-18T10:23:20.351Z,46.27
2017-07-18T10:25:48.470Z,45.27
2017-07-18T10:28:16.954Z,45.23
2017-07-18T10:30:45.067Z,45.63
2017-07-18T10:33:14.024Z,47.08
2017-07-18T10:35:42.643Z,49.77
2017-07-18T10:38:10.770Z,50.89
2017-07-18T10:40:38.871Z,47.56
2017-07-18T10:43:07.244Z,48.49
2017-07-18T10:45:35.961Z,48.76
2017-07-18T10:48:04.064Z,52.32
2017-07-18T10:50:32.452Z,50.86
2017-07-18T10:53:00.519Z,48.99
2017-07-18T10:55:28.596Z,51.33
2017-07-18T10:57:57.133Z,51.07
2017-07-18T11:00:25.232Z,48.76
2017-07-18T11:02:53.297Z,48.96
2017-07-18T11:05:22.049Z,48.43
2017-07-18T11:07:50.111Z,48.77
2017-07-18T11:10:18.191Z,49.36
2017-07-18T11:12:46.566Z,48.84
2017-07-18T11:15:14.755Z,48.57
2017-07-18T11:17:42.849Z,49.49
2017-07-18T11:20:11.226Z,49.04
2017-07-18T11:22:39.300Z,49.16
2017-07-18T11:25:07.751Z,49.88
2017-07-18T11:27:36.099Z,47.66
2017-07-18T11:30:04.315Z,49.09
2017-07-18T11:32:32.535Z,50.47
2017-07-18T11:35:00.996Z,49.29
2017-07-18T11:37:29.451Z,49.47
2017-07-18T11:39:57.662Z,48.29
2017-07-18T11:42:26.635Z,49.35
2017-07-18T11:44:55.223Z,49.18
2017-07-18T11:47:23.833Z,48.77
2017-07-18T11:49:52.443Z,47.21
2017-07-18T11:52:20.527Z,47.69
2017-07-18T11:54:48.611Z,47.63
2017-07-18T11:57:16.938Z,49.08
2017-07-18T11:59:46.052Z,49.34
2017-07-18T12:02:14.163Z,48.03
2017-07-18T12:04:42.583Z,49.50
2017-07-18T12:07:10.652Z,48.23
2017-07-18T12:09:38.786Z,48.40
2017-07-18T12:12:07.147Z,45.66
2017-07-18T12:14:35.220Z,43.46
2017-07-18T12:17:03.393Z,44.65
2017-07-18T12:19:31.756Z,45.31
2017-07-18T12:22:01.442Z,43.89
2017-07-18T12:24:29.544Z,43.26
2017-07-18T12:26:57.915Z,41.52
2017-07-18T12:29:26.024Z,41.65
2017-07-18T12:31:54.082Z,41.42
2017-07-18T12:34:22.477Z,44.90
2017-07-18T12:36:50.561Z,43.45
2017-07-18T12:39:18.683Z,43.07
2017-07-18T12:41:47.216Z,43.02
2017-07-18T12:44:16.988Z,42.59
2017-07-18T12:46:45.050Z,42.68
2017-07-18T12:49:13.434Z,40.92
2017-07-18T12:51:41.668Z,39.53
2017-07-18T12:54:09.756Z,42.31
2017-07-18T12:56:38.171Z,43.82
2017-07-18T12:59:06.255Z,42.70
2017-07-18T13:01:34.312Z,43.84
2017-07-18T13:04:03.260Z,41.71
2017-07-18T13:06:31.354Z,40.26
2017-07-18T13:09:01.015Z,41.78
2017-07-18T13:11:29.463Z,43.28
2017-07-18T13:13:57.568Z,45.51
2017-07-18T13:16:26.052Z,44.40
2017-07-18T13:18:54.595Z,45.83
2017-07-18T13:21:22.691Z,44.36
2017-07-18T13:23:50.791Z,44.49
2017-07-18T13:26:19.183Z,43.69
2017-07-18T13:28:55.475Z,43.10
2017-07-18T13:31:23.555Z,42.66
2017-07-18T13:33:52.099Z,43.68
2017-07-18T13:36:20.311Z,43.37
2017-07-18T13:38:48.440Z,42.64
2017-07-18T13:41:16.790Z,42.51
2017-07-18T13:43:44.925Z,41.23
2017-07-18T13:46:13.027Z,41.60
2017-07-18T13:48:41.408Z,39.88
2017-07-18T13:51:09.530Z,40.76
2017-07-18T13:53:37.675Z,41.75
2017-07-18T13:56:06.061Z,42.31
2017-07-18T13:58:34.211Z,40.02
2017-07-18T14:01:02.783Z,41.74
2017-07-18T14:03:31.191Z,41.96
2017-07-18T14:06:00.732Z,42.34
2017-07-18T14:08:28.871Z,43.43
2017-07-18T14:10:57.223Z,44.46
2017-07-18T14:13:25.419Z,44.97
2017-07-18T14:15:53.500Z,45.27
2017-07-18T14:18:21.830Z,45.33
2017-07-18T14:20:49.911Z,45.96
2017-07-18T14:23:17.991Z,46.63
2017-07-18T14:25:46.359Z,45.48
2017-07-18T14:28:14.452Z,44.07
2017-07-18T14:30:42.553Z,42.28
2017-07-18T14:33:10.943Z,42.06
2017-07-18T14:35:39.071Z,41.84
2017-07-18T14:38:07.203Z,41.41
2017-07-18T14:40:35.568Z,42.62
2017-07-18T14:43:03.664Z,41.22
2017-07-18T14:45:31.797Z,40.80
2017-07-18T14:48:02.123Z,42.14
2017-07-18T14:50:30.250Z,43.22
2017-07-18T14:52:59.373Z,45.06
2017-07-18T14:55:27.759Z,44.90
2017-07-18T14:57:55.863Z,46.51
2017-07-18T15:00:24.003Z,44.28
2017-07-18T15:02:52.384Z,45.43
2017-07-18T15:05:20.467Z,44.38
2017-07-18T15:07:48.575Z,44.30
2017-07-18T15:10:17.044Z,45.06
2017-07-18T15:12:45.199Z,44.84
2017-07-18T15:15:13.379Z,43.94
2017-07-18T15:17:41.775Z,42.67
2017-07-18T15:20:09.944Z,42.86
2017-07-18T15:22:38.535Z,43.33
2017-07-18T15:25:07.218Z,42.27
2017-07-18T15:27:35.307Z,41.55
2017-07-18T15:30:03.496Z,41.52
2017-07-18T15:32:31.900Z,41.62
2017-07-18T15:34:59.983Z,42.38
2017-07-18T15:37:28.088Z,42.41
2017-07-18T15:39:56.439Z,41.43
2017-07-18T15:42:24.497Z,42.17
2017-07-18T15:44:52.607Z,43.11
2017-07-18T15:47:20.956Z,43.35
2017-07-18T15:49:49.059Z,44.09
2017-07-18T15:52:17.160Z,44.45
2017-07-18T15:54:45.535Z,45.97
2017-07-18T15:57:13.620Z,45.79
2017-07-18T15:59:41.854Z,45.13
2017-07-18T16:02:10.225Z,43.99
2017-07-18T16:04:38.325Z,42.96
2017-07-18T16:07:06.435Z,43.02
2017-07-18T16:09:34.789Z,42.94
2017-07-18T16:12:02.876Z,43.18
2017-07-18T16:14:31.004Z,42.44
2017-07-18T16:16:59.375Z,43.38
2017-07-18T16:19:27.487Z,43.60
2017-07-18T16:21:55.563Z,43.88
2017-07-18T16:24:23.947Z,43.09
2017-07-18T16:26:52.030Z,43.37
2017-07-18T16:29:20.216Z,43.14
2017-07-18T16:31:48.575Z,44.35
2017-07-18T16:34:16.685Z,43.65
2017-07-18T16:36:44.775Z,42.97
2017-07-18T16:39:13.253Z,43.58
2017-07-18T16:41:41.410Z,42.54
2017-07-18T16:44:09.487Z,42.98
2017-07-18T16:46:37.851Z,43.77
2017-07-18T16:49:05.939Z,43.68
2017-07-18T16:51:34.028Z,44.02
2017-07-18T16:54:02.443Z,43.69
2017-07-18T16:56:30.563Z,44.82
2017-07-18T16:58:58.674Z,43.93
2017-07-18T17:01:27.105Z,43.79
2017-07-18T17:03:55.171Z,43.40
2017-07-18T17:06:23.321Z,43.60
2017-07-18T17:08:51.678Z,43.60
2017-07-18T17:11:19.797Z,43.14
2017-07-18T17:13:48.571Z,43.61
2017-07-18T17:16:17.018Z,44.01
2017-07-18T17:18:45.168Z,43.19
2017-07-18T17:21:13.258Z,43.15
2017-07-18T17:23:41.628Z,44.00
2017-07-18T17:26:09.727Z,43.96
2017-07-18T17:28:37.846Z,45.03
2017-07-18T17:31:06.221Z,45.06
2017-07-18T17:33:34.396Z,45.47
2017-07-18T17:36:03.882Z,46.48
2017-07-18T17:38:32.248Z,45.76
2017-07-18T17:41:01.606Z,45.28
2017-07-18T17:43:29.911Z,45.69
2017-07-18T17:45:58.409Z,45.33
2017-07-18T17:48:26.503Z,45.58
2017-07-18T17:50:54.615Z,45.77
2017-07-18T17:53:23.011Z,45.07
2017-07-18T17:55:51.111Z,45.29
2017-07-18T17:58:19.220Z,46.20
2017-07-18T18:00:47.570Z,45.74
2017-07-18T18:03:15.787Z,45.31
2017-07-18T18:05:43.891Z,45.49
2017-07-18T18:08:12.262Z,45.83
2017-07-18T18:10:40.335Z,46.48
2017-07-18T18:13:08.391Z,47.43
2017-07-18T18:15:36.988Z,48.35
2017-07-18T18:18:05.127Z,48.39
2017-07-18T18:20:33.223Z,48.67
2017-07-18T18:23:04.083Z,48.28
2017-07-18T18:25:32.216Z,48.67
2017-07-18T18:28:03.675Z,48.17
2017-07-18T18:30:32.042Z,48.81
2017-07-18T18:33:00.159Z,49.07
2017-07-18T18:35:28.260Z,49.29
2017-07-18T18:37:56.602Z,50.00
2017-07-18T18:40:24.713Z,50.60
2017-07-18T18:42:52.813Z,50.91
2017-07-18T18:45:21.191Z,51.48
2017-07-18T18:47:50.786Z,52.29
2017-07-18T18:50:18.898Z,52.14
2017-07-18T18:52:49.308Z,52.43
2017-07-18T18:55:17.420Z,52.43
2017-07-18T18:57:45.523Z,52.36
2017-07-18T19:00:13.908Z,53.03
2017-07-18T19:02:41.972Z,52.99
2017-07-18T19:05:10.043Z,53.96
2017-07-18T19:07:38.469Z,53.94
2017-07-18T19:10:07.634Z,54.86
2017-07-18T19:12:35.758Z,53.99
2017-07-18T19:15:04.214Z,54.13
2017-07-18T19:17:32.632Z,54.88
2017-07-18T19:20:00.693Z,55.60
2017-07-18T19:22:29.099Z,56.00
2017-07-18T19:24:57.267Z,56.47
2017-07-18T19:27:25.352Z,56.97
2017-07-18T19:29:53.755Z,57.49
2017-07-18T19:32:21.852Z,57.21
2017-07-18T19:34:49.998Z,56.74
2017-07-18T19:37:18.421Z,56.78
2017-07-18T19:39:46.476Z,56.69
2017-07-18T19:42:14.551Z,57.05
2017-07-18T19:44:42.925Z,57.08
2017-07-18T19:47:11.152Z,57.48
2017-07-18T19:49:39.432Z,57.76
2017-07-18T19:52:07.853Z,57.92
2017-07-18T19:54:36.247Z,58.02
2017-07-18T19:57:04.406Z,58.56
2017-07-18T19:59:32.823Z,58.47
2017-07-18T20:02:00.935Z,58.69
2017-07-18T20:04:29.023Z,58.44
2017-07-18T20:06:57.390Z,58.48
2017-07-18T20:09:25.571Z,58.83
2017-07-18T20:11:53.647Z,59.09
2017-07-18T20:14:22.034Z,60.55
2017-07-18T20:16:50.109Z,61.99
2017-07-18T20:19:18.200Z,63.16
2017-07-18T20:21:46.648Z,62.00
2017-07-18T20:24:14.706Z,61.31
2017-07-18T20:26:42.851Z,60.70
2017-07-18T20:29:11.352Z,60.61
2017-07-18T20:31:39.496Z,60.82
2017-07-18T20:34:07.575Z,60.74
2017-07-18T20:36:35.951Z,60.67
2017-07-18T20:39:04.342Z,60.67
2017-07-18T20:41:32.524Z,61.26
2017-07-18T20:44:00.916Z,61.50
2017-07-18T20:46:28.996Z,61.40
2017-07-18T20:48:57.064Z,61.61
2017-07-18T20:51:25.493Z,61.95
2017-07-18T20:53:53.695Z,62.20
2017-07-18T20:56:21.891Z,62.42
2017-07-18T20:58:50.306Z,62.63
2017-07-18T21:01:18.481Z,64.39
2017-07-18T21:03:46.539Z,63.67
2017-07-18T21:06:14.928Z,63.75
2017-07-18T21:08:43.059Z,64.51
2017-07-18T21:11:11.224Z,63.93
2017-07-18T21:13:39.687Z,65.27
2017-07-18T21:16:08.192Z,64.37
2017-07-18T21:18:36.321Z,63.92
2017-07-18T21:21:04.854Z,63.84
2017-07-18T21:23:32.924Z,64.04
2017-07-18T21:26:02.589Z,64.37
2017-07-18T21:28:34.959Z,64.50
2017-07-18T21:31:03.160Z,66.34
2017-07-18T21:33:31.235Z,67.23
2017-07-18T21:36:01.124Z,67.24
2017-07-18T21:38:29.347Z,66.93
2017-07-18T21:40:57.567Z,67.81
2017-07-18T21:43:25.935Z,67.79
2017-07-18T21:45:54.002Z,67.07
2017-07-18T21:48:22.119Z,67.41
2017-07-18T21:50:50.543Z,68.58
2017-07-18T21:53:18.645Z,69.23
2017-07-18T21:55:46.752Z,68.97
2017-07-18T21:58:15.156Z,68.30
2017-07-18T22:00:43.247Z,68.71
2017-07-18T22:03:11.315Z,67.95
2017-07-18T22:05:39.692Z,69.33
2017-07-18T22:08:07.795Z,70.14
2017-07-18T22:10:35.892Z,69.47
2017-07-18T22:13:04.439Z,70.27
2017-07-18T22:15:32.526Z,70.30
2017-07-18T22:18:02.706Z,70.35
2017-07-18T22:20:31.598Z,71.12
2017-07-18T22:23:00.895Z,71.77
2017-07-18T22:25:29.067Z,71.76
2017-07-18T22:27:57.439Z,71.58
2017-07-18T22:30:25.501Z,71.27
2017-07-18T22:32:53.574Z,71.75
2017-07-18T22:35:22.163Z,71.31
2017-07-18T22:37:50.227Z,72.20
2017-07-18T22:40:18.303Z,72.00
2017-07-18T22:42:46.646Z,72.66
2017-07-18T22:45:14.743Z,72.95
2017-07-18T22:47:42.954Z,71.25
2017-07-18T22:50:11.616Z,70.53
2017-07-18T22:52:40.040Z,71.28
2017-07-18T22:55:08.115Z,72.06
2017-07-18T22:57:36.957Z,71.77
2017-07-18T23:00:05.043Z,73.84
2017-07-18T23:02:33.231Z,71.18
2017-07-18T23:05:03.449Z,72.83
2017-07-18T23:07:31.566Z,73.26
2017-07-18T23:10:01.416Z,72.83
2017-07-18T23:12:30.101Z,71.30
2017-07-18T23:14:58.206Z,72.35
2017-07-18T23:17:26.335Z,71.56
2017-07-18T23:19:55.175Z,71.60
2017-07-18T23:22:23.263Z,71.47
2017-07-18T23:24:51.330Z,72.13
2017-07-18T23:27:19.688Z,72.44
2017-07-18T23:29:47.768Z,72.12
2017-07-18T23:32:15.844Z,71.36
2017-07-18T23:34:44.359Z,71.50
2017-07-18T23:37:12.430Z,71.51
2017-07-18T23:39:40.498Z,72.12
2017-07-18T23:42:08.851Z,71.50
2017-07-18T23:44:36.919Z,71.38
2017-07-18T23:47:04.992Z,72.83
2017-07-18T23:49:33.366Z,72.69
2017-07-18T23:52:02.617Z,71.87
2017-07-18T23:54:31.097Z,72.37
2017-07-18T23:57:01.803Z,71.08
2017-07-18T23:59:29.891Z,72.69
